createdAt,value
2022-11-25T00:00:16.217Z,100195.66
2022-11-25T00:01:21.675Z,100193.72
2022-11-25T00:02:23.356Z,100188.16
2022-11-25T00:03:25.000Z,100182.34
2022-11-25T00:04:29.235Z,100170.97
2022-11-25T00:05:30.715Z,100176.56
2022-11-25T00:06:32.829Z,100178.25
2022-11-25T00:07:35.600Z,100183.03
2022-11-25T00:08:40.406Z,100174.44
2022-11-25T00:09:41.866Z,100182.50
2022-11-25T00:10:43.418Z,100187.81
2022-11-25T00:11:44.866Z,100182.88
2022-11-25T00:12:47.331Z,100178.06
2022-11-25T00:13:48.946Z,100179.69
2022-11-25T00:14:51.308Z,100182.13
2022-11-25T00:15:52.778Z,100185.94
2022-11-25T00:16:54.343Z,100183.25
2022-11-25T00:17:55.858Z,100188.19
2022-11-25T00:18:59.338Z,100179.28
2022-11-25T00:20:01.761Z,100179.28
2022-11-25T00:21:07.278Z,100180.88
2022-11-25T00:22:08.713Z,100173.97
2022-11-25T00:23:16.362Z,100178.16
2022-11-25T00:24:17.879Z,100169.00
2022-11-25T00:25:19.406Z,100181.53
2022-11-25T00:26:24.722Z,100180.19
2022-11-25T00:27:26.198Z,100182.19
2022-11-25T00:28:27.798Z,100177.22
2022-11-25T00:29:31.630Z,100182.25
2022-11-25T00:30:33.427Z,100177.53
2022-11-25T00:31:35.586Z,100176.19
2022-11-25T00:32:37.150Z,100180.66
2022-11-25T00:33:38.631Z,100178.63
2022-11-25T00:34:42.343Z,100175.59
2022-11-25T00:35:46.856Z,100183.44
2022-11-25T00:36:55.355Z,100182.34
2022-11-25T00:37:57.350Z,100173.75
2022-11-25T00:39:01.875Z,100181.81
2022-11-25T00:40:04.581Z,100177.34
2022-11-25T00:43:19.129Z,100180.16
2022-11-25T00:44:36.241Z,100176.25
2022-11-25T00:45:38.378Z,100177.34
2022-11-25T00:46:40.901Z,100182.09
2022-11-25T00:47:44.303Z,100173.75
2022-11-25T00:48:57.942Z,100181.25
2022-11-25T00:50:01.878Z,100185.97
2022-11-25T00:51:03.437Z,100184.56
2022-11-25T00:52:05.028Z,100179.81
2022-11-25T00:53:09.357Z,100177.31
2022-11-25T00:54:10.851Z,100181.16
2022-11-25T00:55:14.389Z,100168.13
2022-11-25T00:56:18.526Z,100176.47
2022-11-25T00:57:20.828Z,100171.97
2022-11-25T00:58:22.373Z,100171.13
2022-11-25T00:59:29.404Z,100170.03
2022-11-25T01:00:33.654Z,100172.22
2022-11-25T01:01:35.700Z,100172.22
2022-11-25T01:02:37.307Z,100173.34
2022-11-25T01:03:39.046Z,100176.13
2022-11-25T01:04:53.568Z,100170.56
2022-11-25T01:05:55.061Z,100187.25
2022-11-25T01:07:02.584Z,100185.56
2022-11-25T01:08:04.398Z,100177.22
2022-11-25T01:09:08.709Z,100166.63
2022-11-25T01:10:10.213Z,100188.28
2022-11-25T01:11:14.133Z,100182.72
2022-11-25T01:12:15.780Z,100174.28
2022-11-25T01:13:17.227Z,100178.44
2022-11-25T01:14:19.018Z,100173.13
2022-11-25T01:15:37.121Z,100180.38
2022-11-25T01:16:38.676Z,100187.59
2022-11-25T01:17:44.649Z,100175.13
2022-11-25T01:18:48.657Z,100182.13
2022-11-25T01:20:05.582Z,100181.53
2022-11-25T01:21:16.162Z,100179.34
2022-11-25T01:22:20.099Z,100181.03
2022-11-25T01:23:21.610Z,100180.19
2022-11-25T01:24:32.826Z,100178.69
2022-11-25T01:25:40.494Z,100183.72
2022-11-25T01:26:42.030Z,100180.69
2022-11-25T01:27:43.532Z,100187.09
2022-11-25T01:28:45.053Z,100183.25
2022-11-25T01:30:01.889Z,100185.94
2022-11-25T01:31:27.603Z,100182.06
2022-11-25T01:32:29.093Z,100187.09
2022-11-25T01:33:34.565Z,100189.22
2022-11-25T01:34:37.547Z,100182.56
2022-11-25T01:35:41.834Z,100182.06
2022-11-25T01:36:43.289Z,100180.38
2022-11-25T01:37:44.803Z,100187.59
2022-11-25T01:40:04.974Z,100187.09
2022-11-25T01:41:10.494Z,100180.69
2022-11-25T01:42:14.610Z,100182.63
2022-11-25T01:43:16.182Z,100178.53
2022-11-25T01:44:23.340Z,100172.97
2022-11-25T01:45:34.814Z,100184.91
2022-11-25T01:46:43.117Z,100190.22
2022-11-25T01:47:54.766Z,100188.28
2022-11-25T01:48:57.058Z,100189.13
2022-11-25T01:50:05.278Z,100190.97
2022-11-25T01:51:11.882Z,100190.66
2022-11-25T01:52:29.706Z,100189.56
2022-11-25T01:53:33.280Z,100194.84
2022-11-25T01:55:00.289Z,100194.84
2022-11-25T01:56:03.128Z,100192.66
2022-11-25T01:57:22.987Z,100195.19
2022-11-25T01:58:27.321Z,100190.66
2022-11-25T01:59:35.162Z,100194.84
2022-11-25T02:00:37.708Z,100195.38
2022-11-25T02:01:41.789Z,100189.50
2022-11-25T02:02:43.409Z,100194.22
2022-11-25T02:03:48.090Z,100199.78
2022-11-25T02:04:52.374Z,100195.06
2022-11-25T02:06:14.677Z,100192.00
2022-11-25T02:07:19.925Z,100188.13
2022-11-25T02:08:22.888Z,100188.72
2022-11-25T02:09:25.446Z,100188.66
2022-11-25T02:10:29.543Z,100188.66
2022-11-25T02:11:31.058Z,100186.28
2022-11-25T02:12:34.345Z,100181.25
2022-11-25T02:13:38.913Z,100191.28
2022-11-25T02:14:40.557Z,100181.84
2022-11-25T02:15:42.026Z,100182.09
2022-11-25T02:16:43.642Z,100184.09
2022-11-25T02:17:45.156Z,100178.22
2022-11-25T02:18:48.994Z,100189.00
2022-11-25T02:20:11.381Z,100178.56
2022-11-25T02:21:22.776Z,100176.78
2022-11-25T02:22:32.683Z,100172.00
2022-11-25T02:23:46.988Z,100176.56
2022-11-25T02:24:50.770Z,100173.19
2022-11-25T02:26:01.346Z,100171.19
2022-11-25T02:27:05.648Z,100183.47
2022-11-25T02:28:09.759Z,100177.41
2022-11-25T02:29:12.409Z,100179.19
2022-11-25T02:30:14.407Z,100173.69
2022-11-25T02:31:22.273Z,100173.16
2022-11-25T02:32:23.851Z,100174.38
2022-11-25T02:33:25.555Z,100181.09
2022-11-25T02:34:27.090Z,100183.34
2022-11-25T02:35:28.545Z,100180.09
2022-11-25T02:36:30.457Z,100176.44
2022-11-25T02:37:36.959Z,100175.59
2022-11-25T02:39:04.731Z,100170.22
2022-11-25T02:40:09.086Z,100173.34
2022-11-25T02:41:17.696Z,100173.34
2022-11-25T02:42:21.953Z,100163.25
2022-11-25T02:43:23.683Z,100179.00
2022-11-25T02:44:26.653Z,100175.38
2022-11-25T02:45:39.865Z,100179.00
2022-11-25T02:46:41.391Z,100167.88
2022-11-25T02:47:45.945Z,100174.53
2022-11-25T02:50:17.013Z,100183.81
2022-11-25T02:51:19.911Z,100175.47
2022-11-25T02:52:21.560Z,100178.25
2022-11-25T02:53:23.149Z,100180.41
2022-11-25T02:54:28.224Z,100183.13
2022-11-25T02:55:29.725Z,100177.13
2022-11-25T02:56:32.342Z,100176.03
2022-11-25T02:57:33.831Z,100174.03
2022-11-25T02:58:35.393Z,100184.31
2022-11-25T02:59:36.931Z,100173.38
2022-11-25T03:00:39.455Z,100164.94
2022-11-25T03:01:41.027Z,100170.16
2022-11-25T03:02:44.485Z,100167.13
2022-11-25T03:03:46.070Z,100168.75
2022-11-25T03:04:49.374Z,100158.63
2022-11-25T03:06:01.410Z,100163.94
2022-11-25T03:07:03.371Z,100174.88
2022-11-25T03:08:04.897Z,100172.09
2022-11-25T03:09:11.570Z,100169.59
2022-11-25T03:10:20.546Z,100170.44
2022-11-25T03:11:42.009Z,100170.31
2022-11-25T03:12:43.951Z,100160.13
2022-11-25T03:13:48.252Z,100170.66
2022-11-25T03:14:50.365Z,100167.03
2022-11-25T03:15:54.730Z,100159.22
2022-11-25T03:16:58.280Z,100162.75
2022-11-25T03:18:01.380Z,100164.94
2022-11-25T03:19:03.639Z,100176.03
2022-11-25T03:20:05.714Z,100170.97
2022-11-25T03:22:22.899Z,100163.16
2022-11-25T03:23:26.703Z,100170.38
2022-11-25T03:24:28.426Z,100163.75
2022-11-25T03:25:29.926Z,100169.53
2022-11-25T03:26:31.971Z,100170.13
2022-11-25T03:27:33.852Z,100171.81
2022-11-25T03:28:36.964Z,100174.00
2022-11-25T03:29:38.534Z,100174.50
2022-11-25T03:30:40.294Z,100163.06
2022-11-25T03:31:43.942Z,100161.47
2022-11-25T03:32:48.961Z,100156.00
2022-11-25T03:33:51.387Z,100157.78
2022-11-25T03:34:52.863Z,100152.81
2022-11-25T03:35:54.359Z,100153.31
2022-11-25T03:36:58.504Z,100156.63
2022-11-25T03:38:02.099Z,100155.41
2022-11-25T03:39:05.570Z,100164.69
2022-11-25T03:40:08.894Z,100150.31
2022-11-25T03:41:12.717Z,100148.44
2022-11-25T03:42:14.535Z,100157.88
2022-11-25T03:43:21.707Z,100158.81
2022-11-25T03:44:23.295Z,100157.34
2022-11-25T03:45:26.181Z,100166.38
2022-11-25T03:46:29.022Z,100165.59
2022-11-25T03:47:30.579Z,100166.31
2022-11-25T03:48:32.052Z,100174.69
2022-11-25T03:49:33.514Z,100171.19
2022-11-25T03:50:34.978Z,100165.13
2022-11-25T03:51:36.502Z,100162.09
2022-11-25T03:52:46.834Z,100158.53
2022-11-25T03:53:52.421Z,100173.63
2022-11-25T03:54:56.520Z,100172.00
2022-11-25T03:56:01.577Z,100165.94
2022-11-25T03:57:03.953Z,100177.63
2022-11-25T03:58:07.744Z,100172.94
2022-11-25T03:59:09.222Z,100178.81
2022-11-25T04:00:11.227Z,100179.41
2022-11-25T04:02:48.454Z,100169.91
2022-11-25T04:03:51.435Z,100165.19
2022-11-25T04:04:58.194Z,100157.69
2022-11-25T04:05:59.743Z,100152.97
2022-11-25T04:07:01.281Z,100159.22
2022-11-25T04:08:05.684Z,100155.34
2022-11-25T04:09:39.768Z,100161.72
2022-11-25T04:10:45.089Z,100168.72
2022-11-25T04:12:21.418Z,100165.09
2022-11-25T04:13:58.970Z,100169.66
2022-11-25T04:15:00.467Z,100180.00
2022-11-25T04:16:05.100Z,100180.56
2022-11-25T04:17:06.944Z,100176.69
2022-11-25T04:18:10.947Z,100179.72
2022-11-25T04:19:14.136Z,100168.34
2022-11-25T04:20:15.618Z,100173.16
2022-11-25T04:21:20.557Z,100168.72
2022-11-25T04:22:22.441Z,100162.31
2022-11-25T04:23:24.939Z,100163.72
2022-11-25T04:24:35.770Z,100156.25
2022-11-25T04:25:38.575Z,100156.97
2022-11-25T04:26:46.570Z,100155.91
2022-11-25T04:27:57.037Z,100161.22
2022-11-25T04:29:04.605Z,100161.56
2022-11-25T04:30:06.439Z,100154.34
2022-11-25T04:31:10.987Z,100154.91
2022-11-25T04:33:32.514Z,100155.66
2022-11-25T04:34:36.689Z,100155.19
2022-11-25T04:35:40.858Z,100154.41
2022-11-25T04:36:49.464Z,100151.09
2022-11-25T04:39:09.138Z,100156.06
2022-11-25T04:41:36.198Z,100160.03
2022-11-25T04:42:39.670Z,100151.03
2022-11-25T04:43:48.589Z,100158.44
2022-11-25T04:45:14.161Z,100159.59
2022-11-25T04:46:41.009Z,100149.31
2022-11-25T04:47:43.698Z,100157.97
2022-11-25T04:48:52.962Z,100157.97
2022-11-25T04:49:58.412Z,100150.22
2022-11-25T04:51:05.405Z,100157.50
2022-11-25T04:52:07.260Z,100154.44
2022-11-25T04:53:08.762Z,100146.09
2022-11-25T04:54:16.156Z,100138.59
2022-11-25T04:55:19.642Z,100141.38
2022-11-25T04:56:27.300Z,100145.84
2022-11-25T04:57:32.709Z,100143.91
2022-11-25T04:58:52.929Z,100150.88
2022-11-25T04:59:58.402Z,100153.94
2022-11-25T05:01:02.830Z,100157.81
2022-11-25T05:02:04.418Z,100160.84
2022-11-25T05:03:31.612Z,100159.75
2022-11-25T05:04:33.680Z,100162.53
2022-11-25T05:05:35.310Z,100157.50
2022-11-25T05:06:36.834Z,100160.84
2022-11-25T05:07:39.064Z,100149.47
2022-11-25T05:09:11.141Z,100158.06
2022-11-25T05:10:14.469Z,100164.22
2022-11-25T05:11:20.049Z,100158.66
2022-11-25T05:12:22.765Z,100163.09
2022-11-25T05:13:26.817Z,100161.16
2022-11-25T05:14:30.451Z,100165.63
2022-11-25T05:15:31.948Z,100165.38
2022-11-25T05:16:33.534Z,100167.56
2022-11-25T05:17:35.409Z,100164.53
2022-11-25T05:18:36.983Z,100162.53
2022-11-25T05:19:40.787Z,100164.06
2022-11-25T05:20:49.786Z,100166.25
2022-11-25T05:21:55.467Z,100169.63
2022-11-25T05:22:57.989Z,100171.28
2022-11-25T05:23:59.521Z,100175.50
2022-11-25T05:25:05.700Z,100172.22
2022-11-25T05:26:10.354Z,100171.97
2022-11-25T05:27:21.820Z,100180.88
2022-11-25T05:28:26.423Z,100180.22
2022-11-25T05:29:30.677Z,100181.91
2022-11-25T05:30:39.563Z,100181.16
2022-11-25T05:31:44.021Z,100179.78
2022-11-25T05:32:46.551Z,100180.06
2022-11-25T05:33:50.409Z,100181.47
2022-11-25T05:34:52.841Z,100179.13
2022-11-25T05:35:55.816Z,100173.50
2022-11-25T05:37:24.767Z,100173.25
2022-11-25T05:38:33.578Z,100175.50
2022-11-25T05:39:37.718Z,100175.69
2022-11-25T05:41:04.724Z,100169.81
2022-11-25T05:42:06.233Z,100174.00
2022-11-25T05:43:08.003Z,100182.34
2022-11-25T05:44:11.330Z,100177.38
2022-11-25T05:45:13.303Z,100180.56
2022-11-25T05:46:15.343Z,100184.44
2022-11-25T05:47:24.818Z,100191.09
2022-11-25T05:48:27.501Z,100189.84
2022-11-25T05:49:31.362Z,100192.88
2022-11-25T05:50:32.841Z,100196.59
2022-11-25T05:51:57.362Z,100194.41
2022-11-25T05:53:00.494Z,100200.22
2022-11-25T05:54:02.634Z,100199.97
2022-11-25T05:55:06.336Z,100202.47
2022-11-25T05:56:09.751Z,100197.78
2022-11-25T05:57:31.250Z,100202.16
2022-11-25T05:58:45.629Z,100192.72
2022-11-25T05:59:53.880Z,100199.69
2022-11-25T06:01:01.435Z,100201.44
2022-11-25T06:02:03.562Z,100206.28
2022-11-25T06:03:06.019Z,100204.66
2022-11-25T06:04:07.633Z,100213.25
2022-11-25T06:05:09.423Z,100196.91
2022-11-25T06:06:13.255Z,100214.16
2022-11-25T06:07:14.752Z,100204.81
2022-11-25T06:08:19.536Z,100204.28
2022-11-25T06:09:22.450Z,100207.75
2022-11-25T06:10:32.991Z,100198.56
2022-11-25T06:11:36.602Z,100197.66
2022-11-25T06:12:38.159Z,100217.13
2022-11-25T06:13:42.087Z,100206.84
2022-11-25T06:14:43.565Z,100209.22
2022-11-25T06:15:45.296Z,100210.56
2022-11-25T06:16:49.465Z,100209.28
2022-11-25T06:18:11.518Z,100213.53
2022-11-25T06:19:13.044Z,100217.72
2022-11-25T06:20:16.541Z,100224.47
2022-11-25T06:21:18.099Z,100217.81
2022-11-25T06:22:19.642Z,100226.25
2022-11-25T06:23:21.131Z,100225.41
2022-11-25T06:24:22.657Z,100229.88
2022-11-25T06:25:32.711Z,100228.25
2022-11-25T06:26:34.271Z,100222.94
2022-11-25T06:28:10.716Z,100226.88
2022-11-25T06:29:02.480Z,100238.53
2022-11-25T06:30:04.519Z,100240.22
2022-11-25T06:31:13.184Z,100238.53
2022-11-25T06:32:22.388Z,100232.72
2022-11-25T06:33:38.691Z,100228.75
2022-11-25T06:34:45.087Z,100228.34
2022-11-25T06:36:07.186Z,100225.56
2022-11-25T06:37:09.075Z,100227.75
2022-11-25T06:38:11.514Z,100223.19
2022-11-25T06:39:13.014Z,100234.91
2022-11-25T06:40:14.606Z,100233.78
2022-11-25T06:41:23.267Z,100236.19
2022-11-25T06:42:24.753Z,100242.75
2022-11-25T06:43:26.307Z,100230.56
2022-11-25T06:44:30.846Z,100238.81
2022-11-25T06:45:33.088Z,100237.59
2022-11-25T06:46:34.733Z,100229.84
2022-11-25T06:47:43.301Z,100224.91
2022-11-25T06:48:52.221Z,100235.06
2022-11-25T06:49:59.835Z,100240.13
2022-11-25T06:51:02.280Z,100244.22
2022-11-25T06:52:03.886Z,100240.88
2022-11-25T06:53:05.429Z,100251.13
2022-11-25T06:54:08.506Z,100252.22
2022-11-25T06:55:10.449Z,100243.06
2022-11-25T06:56:11.890Z,100250.38
2022-11-25T06:57:15.629Z,100253.16
2022-11-25T06:58:35.441Z,100244.81
2022-11-25T06:59:42.443Z,100259.31
2022-11-25T07:00:44.467Z,100258.22
2022-11-25T07:01:46.049Z,100254.84
2022-11-25T07:02:48.854Z,100242.66
2022-11-25T07:03:51.444Z,100262.69
2022-11-25T07:04:53.820Z,100252.81
2022-11-25T07:05:56.539Z,100251.97
2022-11-25T07:07:01.986Z,100253.28
2022-11-25T07:08:03.461Z,100259.50
2022-11-25T07:09:07.917Z,100258.91
2022-11-25T07:10:09.500Z,100246.13
2022-11-25T07:12:46.642Z,100246.72
2022-11-25T07:13:48.640Z,100256.44
2022-11-25T07:14:56.141Z,100249.78
2022-11-25T07:16:00.189Z,100257.28
2022-11-25T07:17:04.222Z,100249.19
2022-11-25T07:18:12.545Z,100252.91
2022-11-25T07:19:15.311Z,100253.78
2022-11-25T07:20:19.273Z,100254.94
2022-11-25T07:21:21.491Z,100263.03
2022-11-25T07:22:30.422Z,100265.63
2022-11-25T07:23:34.773Z,100261.88
2022-11-25T07:24:36.614Z,100261.38
2022-11-25T07:25:38.366Z,100269.13
2022-11-25T07:27:57.490Z,100265.84
2022-11-25T07:29:02.534Z,100269.44
2022-11-25T07:31:33.795Z,100276.47
2022-11-25T07:32:44.949Z,100270.16
2022-11-25T07:33:48.965Z,100273.06
2022-11-25T07:34:58.671Z,100272.34
2022-11-25T07:36:06.642Z,100274.63
2022-11-25T07:37:10.732Z,100276.22
2022-11-25T07:38:12.351Z,100277.53
2022-11-25T07:39:21.023Z,100280.41
2022-11-25T07:40:25.390Z,100288.16
2022-11-25T07:41:27.672Z,100283.59
2022-11-25T07:42:31.581Z,100282.25
2022-11-25T07:43:34.289Z,100287.78
2022-11-25T07:44:35.846Z,100288.56
2022-11-25T07:46:26.317Z,100278.94
2022-11-25T07:47:35.743Z,100286.00
2022-11-25T07:48:37.291Z,100277.53
2022-11-25T07:49:41.810Z,100286.38
2022-11-25T07:50:43.526Z,100287.34
2022-11-25T07:51:48.741Z,100288.69
2022-11-25T07:52:57.667Z,100285.19
2022-11-25T07:54:01.801Z,100287.13
2022-11-25T07:55:05.918Z,100283.50
2022-11-25T07:56:07.730Z,100287.34
2022-11-25T07:57:40.344Z,100280.72
2022-11-25T07:58:45.872Z,100285.78
2022-11-25T07:59:50.606Z,100285.78
2022-11-25T08:00:52.162Z,100275.53
2022-11-25T08:01:56.573Z,100284.69
2022-11-25T08:02:58.158Z,100294.38
2022-11-25T08:04:02.364Z,100294.38
2022-11-25T08:05:03.862Z,100298.81
2022-11-25T08:06:12.604Z,100277.72
2022-11-25T08:07:16.131Z,100286.16
2022-11-25T08:08:17.696Z,100288.31
2022-11-25T08:09:28.567Z,100290.50
2022-11-25T08:10:30.026Z,100283.97
2022-11-25T08:11:35.663Z,100284.94
2022-11-25T08:13:53.641Z,100292.69
2022-11-25T08:14:58.752Z,100295.78
2022-11-25T08:16:00.944Z,100297.47
2022-11-25T08:17:14.636Z,100298.94
2022-11-25T08:18:16.347Z,100298.44
2022-11-25T08:19:28.456Z,100296.38
2022-11-25T08:21:56.308Z,100307.50
2022-11-25T08:22:58.532Z,100304.00
2022-11-25T08:24:02.373Z,100307.41
2022-11-25T08:25:03.883Z,100297.59
2022-11-25T08:26:09.077Z,100302.94
2022-11-25T08:27:29.423Z,100310.16
2022-11-25T08:28:30.939Z,100317.50
2022-11-25T08:29:32.493Z,100313.88
2022-11-25T08:30:33.946Z,100311.72
2022-11-25T08:31:44.776Z,100311.50
2022-11-25T08:32:46.309Z,100317.53
2022-11-25T08:33:47.919Z,100309.06
2022-11-25T08:34:56.730Z,100308.72
2022-11-25T08:36:00.934Z,100302.81
2022-11-25T08:37:02.566Z,100304.75
2022-11-25T08:38:05.568Z,100307.63
2022-11-25T08:39:28.852Z,100304.00
2022-11-25T08:40:32.022Z,100318.69
2022-11-25T08:41:34.271Z,100315.91
2022-11-25T08:42:41.675Z,100315.19
2022-11-25T08:43:43.215Z,100328.47
2022-11-25T08:44:55.424Z,100315.19
2022-11-25T08:45:58.616Z,100315.88
2022-11-25T08:47:00.849Z,100321.66
2022-11-25T08:48:02.607Z,100321.06
2022-11-25T08:49:04.411Z,100321.47
2022-11-25T08:50:07.417Z,100317.84
2022-11-25T08:51:41.067Z,100318.91
2022-11-25T08:52:43.579Z,100320.56
2022-11-25T08:53:52.355Z,100326.63
2022-11-25T08:54:53.834Z,100325.03
2022-11-25T08:55:55.339Z,100317.41
2022-11-25T08:56:56.766Z,100322.59
2022-11-25T08:58:01.358Z,100328.22
2022-11-25T08:59:03.223Z,100328.94
2022-11-25T09:00:05.549Z,100320.81
2022-11-25T09:01:07.139Z,100329.53
2022-11-25T09:02:17.970Z,100328.44
2022-11-25T09:03:19.623Z,100329.59
2022-11-25T09:04:30.313Z,100345.44
2022-11-25T09:05:35.950Z,100335.56
2022-11-25T09:06:46.603Z,100330.13
2022-11-25T09:07:50.770Z,100337.09
2022-11-25T09:08:56.507Z,100332.00
2022-11-25T09:09:58.557Z,100337.75
2022-11-25T09:11:00.768Z,100339.56
2022-11-25T09:12:02.375Z,100335.22
2022-11-25T09:13:03.906Z,100330.25
2022-11-25T09:14:05.438Z,100342.47
2022-11-25T09:15:08.941Z,100347.69
2022-11-25T09:16:10.654Z,100345.38
2022-11-25T09:17:12.653Z,100338.59
2022-11-25T09:18:21.196Z,100335.03
2022-11-25T09:19:22.830Z,100341.63
2022-11-25T09:20:26.859Z,100347.88
2022-11-25T09:21:35.845Z,100342.31
2022-11-25T09:22:37.351Z,100338.44
2022-11-25T09:24:54.629Z,100346.69
2022-11-25T09:25:57.711Z,100349.56
2022-11-25T09:27:02.062Z,100347.44
2022-11-25T09:28:03.631Z,100351.91
2022-11-25T09:29:05.109Z,100354.69
2022-11-25T09:30:08.078Z,100355.63
2022-11-25T09:31:09.717Z,100359.84
2022-11-25T09:32:14.324Z,100365.72
2022-11-25T09:33:19.796Z,100365.47
2022-11-25T09:34:21.337Z,100355.53
2022-11-25T09:35:23.020Z,100360.59
2022-11-25T09:36:36.202Z,100354.25
2022-11-25T09:37:37.754Z,100366.38
2022-11-25T09:38:43.084Z,100365.97
2022-11-25T09:39:47.938Z,100370.56
2022-11-25T09:40:54.173Z,100366.63
2022-11-25T09:42:30.490Z,100381.63
2022-11-25T09:43:58.317Z,100375.06
2022-11-25T09:45:26.503Z,100372.16
2022-11-25T09:46:42.785Z,100375.06
2022-11-25T09:48:17.996Z,100376.88
2022-11-25T09:49:41.010Z,100379.00
2022-11-25T09:50:55.418Z,100381.06
2022-11-25T09:52:15.826Z,100386.56
2022-11-25T09:53:23.359Z,100381.44
2022-11-25T09:54:27.167Z,100377.59
2022-11-25T09:55:29.901Z,100380.13
2022-11-25T09:56:51.485Z,100375.03
2022-11-25T09:58:03.142Z,100390.94
2022-11-25T09:59:04.601Z,100383.09
2022-11-25T10:00:07.112Z,100385.75
2022-11-25T10:01:24.161Z,100382.28
2022-11-25T10:02:28.434Z,100388.38
2022-11-25T10:03:48.525Z,100392.53
2022-11-25T10:05:18.090Z,100383.28
2022-11-25T10:06:29.615Z,100388.59
2022-11-25T10:07:34.827Z,100396.16
2022-11-25T10:08:40.273Z,100394.38
2022-11-25T10:09:41.853Z,100402.69
2022-11-25T10:10:44.702Z,100391.16
2022-11-25T10:11:46.143Z,100405.44
2022-11-25T10:12:47.614Z,100404.34
2022-11-25T10:13:54.949Z,100399.53
2022-11-25T10:15:00.132Z,100405.63
2022-11-25T10:16:04.671Z,100401.56
2022-11-25T10:17:09.547Z,100411.63
2022-11-25T10:18:31.723Z,100414.75
2022-11-25T10:19:45.130Z,100412.28
2022-11-25T10:20:48.954Z,100417.22
2022-11-25T10:21:50.436Z,100414.44
2022-11-25T10:23:10.651Z,100412.47
2022-11-25T10:24:18.105Z,100421.41
2022-11-25T10:25:44.525Z,100416.19
2022-11-25T10:26:45.836Z,100416.75
2022-11-25T10:27:53.415Z,100422.91
2022-11-25T10:29:23.840Z,100420.59
2022-11-25T10:30:46.749Z,100412.22
2022-11-25T10:31:48.307Z,100418.91
2022-11-25T10:33:09.459Z,100417.75
2022-11-25T10:34:23.382Z,100414.59
2022-11-25T10:35:54.162Z,100413.22
2022-11-25T10:36:58.359Z,100417.44
2022-11-25T10:38:00.435Z,100414.88
2022-11-25T10:39:03.381Z,100419.41
2022-11-25T10:40:05.254Z,100421.66
2022-11-25T10:41:06.720Z,100429.44
2022-11-25T10:42:14.215Z,100414.59
2022-11-25T10:43:20.893Z,100415.41
2022-11-25T10:44:35.834Z,100416.00
2022-11-25T10:45:47.981Z,100408.75
2022-11-25T10:47:18.811Z,100407.72
2022-11-25T10:48:44.014Z,100408.28
2022-11-25T10:49:52.421Z,100413.31
2022-11-25T10:50:53.898Z,100409.44
2022-11-25T10:51:57.403Z,100415.56
2022-11-25T10:53:01.382Z,100411.34
2022-11-25T10:54:09.673Z,100412.72
2022-11-25T10:55:11.574Z,100414.38
2022-11-25T10:56:17.632Z,100414.88
2022-11-25T10:57:19.954Z,100413.28
2022-11-25T10:58:29.990Z,100419.97
2022-11-25T10:59:40.829Z,100409.31
2022-11-25T11:00:42.579Z,100418.28
2022-11-25T11:01:46.976Z,100416.84
2022-11-25T11:02:48.723Z,100429.94
2022-11-25T11:04:19.109Z,100417.94
2022-11-25T11:05:30.304Z,100414.81
2022-11-25T11:06:32.082Z,100423.75
2022-11-25T11:07:34.505Z,100414.28
2022-11-25T11:08:39.241Z,100427.28
2022-11-25T11:09:48.759Z,100422.06
2022-11-25T11:11:08.394Z,100413.75
2022-11-25T11:12:23.269Z,100431.03
2022-11-25T11:13:25.918Z,100429.94
2022-11-25T11:14:32.256Z,100430.28
2022-11-25T11:15:54.168Z,100431.31
2022-11-25T11:16:56.135Z,100426.91
2022-11-25T11:17:59.871Z,100433.13
2022-11-25T11:19:01.457Z,100438.13
2022-11-25T11:20:02.956Z,100437.88
2022-11-25T11:21:05.420Z,100435.75
2022-11-25T11:22:16.287Z,100439.09
2022-11-25T11:23:18.630Z,100438.06
2022-11-25T11:24:34.990Z,100433.09
2022-11-25T11:25:39.228Z,100436.00
2022-11-25T11:26:40.870Z,100436.91
2022-11-25T11:27:42.319Z,100425.84
2022-11-25T11:28:43.797Z,100430.66
2022-11-25T11:29:45.294Z,100436.56
2022-11-25T11:30:53.504Z,100438.84
2022-11-25T11:31:59.054Z,100433.53
2022-11-25T11:33:04.601Z,100439.16
2022-11-25T11:34:26.592Z,100437.56
2022-11-25T11:35:30.859Z,100443.16
2022-11-25T11:36:38.248Z,100444.34
2022-11-25T11:37:55.355Z,100448.25
2022-11-25T11:39:01.335Z,100442.97
2022-11-25T11:40:05.591Z,100444.13
2022-11-25T11:41:25.721Z,100442.19
2022-11-25T11:42:33.331Z,100437.16
2022-11-25T11:44:00.218Z,100445.28
2022-11-25T11:45:04.774Z,100448.09
2022-11-25T11:46:18.442Z,100445.00
2022-11-25T11:47:36.391Z,100441.09
2022-11-25T11:48:55.103Z,100439.13
2022-11-25T11:50:00.747Z,100440.53
2022-11-25T11:51:02.220Z,100443.88
2022-11-25T11:52:10.510Z,100444.44
2022-11-25T11:53:30.971Z,100446.41
2022-11-25T11:54:51.250Z,100441.66
2022-11-25T11:56:34.127Z,100445.00
2022-11-25T11:57:34.704Z,100447.28
2022-11-25T11:58:55.272Z,100440.59
2022-11-25T11:59:56.983Z,100447.88
2022-11-25T12:00:58.499Z,100435.06
2022-11-25T12:02:16.710Z,100440.94
2022-11-25T12:03:19.354Z,100452.97
2022-11-25T12:04:22.641Z,100447.38
2022-11-25T12:05:33.911Z,100448.78
2022-11-25T12:06:35.395Z,100447.97
2022-11-25T12:07:54.926Z,100454.09
2022-11-25T12:09:16.677Z,100454.66
2022-11-25T12:10:25.649Z,100456.06
2022-11-25T12:11:35.084Z,100454.09
2022-11-25T12:12:38.683Z,100465.81
2022-11-25T12:13:45.761Z,100458.56
2022-11-25T12:14:52.358Z,100459.19
2022-11-25T12:16:15.476Z,100459.19
2022-11-25T12:17:27.445Z,100460.06
2022-11-25T12:18:47.605Z,100457.03
2022-11-25T12:19:55.134Z,100459.00
2022-11-25T12:21:01.326Z,100466.03
2022-11-25T12:22:11.522Z,100461.25
2022-11-25T12:23:15.540Z,100462.75
2022-11-25T12:24:19.844Z,100466.09
2022-11-25T12:25:24.614Z,100463.63
2022-11-25T12:26:30.046Z,100461.38
2022-11-25T12:27:47.577Z,100461.09
2022-11-25T12:28:51.858Z,100458.34
2022-11-25T12:30:06.884Z,100460.84
2022-11-25T12:31:40.831Z,100465.56
2022-11-25T12:33:03.152Z,100472.56
2022-11-25T12:34:09.538Z,100472.31
2022-11-25T12:35:32.652Z,100472.84
2022-11-25T12:36:34.937Z,100484.03
2022-11-25T12:37:38.200Z,100469.78
2022-11-25T12:39:03.951Z,100474.53
2022-11-25T12:40:18.948Z,100478.44
2022-11-25T12:41:49.532Z,100482.97
2022-11-25T12:44:14.658Z,100478.53
2022-11-25T12:45:17.690Z,100485.25
2022-11-25T12:46:21.297Z,100485.75
2022-11-25T12:47:22.873Z,100492.50
2022-11-25T12:48:24.560Z,100485.25
2022-11-25T12:49:42.407Z,100488.31
2022-11-25T12:51:01.127Z,100498.16
2022-11-25T12:52:02.785Z,100486.09
2022-11-25T12:53:27.717Z,100473.50
2022-11-25T12:54:29.180Z,100493.97
2022-11-25T12:55:30.658Z,100488.63
2022-11-25T12:56:59.873Z,100489.19
2022-11-25T12:58:22.776Z,100500.44
2022-11-25T12:59:36.430Z,100505.75
2022-11-25T13:00:42.817Z,100504.91
2022-11-25T13:01:51.771Z,100503.50